createdAt,value
2023-04-03T00:01:02.403Z,83
2023-04-03T00:11:02.404Z,85
2023-04-03T00:21:02.403Z,87
2023-04-03T00:31:02.405Z,81
2023-04-03T00:41:02.395Z,80
2023-04-03T00:51:02.381Z,78
2023-04-03T01:01:02.362Z,84
2023-04-03T01:11:02.377Z,88
2023-04-03T01:21:02.398Z,82
2023-04-03T01:31:02.438Z,82
2023-04-03T01:41:02.385Z,89
2023-04-03T01:51:02.372Z,95
2023-04-03T02:01:10.831Z,99
2023-04-03T02:11:02.363Z,100
2023-04-03T02:21:02.384Z,100
2023-04-03T02:31:02.427Z,100
2023-04-03T02:41:02.446Z,100
2023-04-03T02:51:02.448Z,100
2023-04-03T03:01:02.355Z,100
2023-04-03T03:11:02.353Z,100
2023-04-03T03:21:02.342Z,100
2023-04-03T03:31:02.412Z,100
2023-04-03T03:41:02.454Z,100
2023-04-03T03:51:02.344Z,100
2023-04-03T04:01:02.340Z,100
2023-04-03T04:11:02.424Z,100
2023-04-03T04:21:02.364Z,100
2023-04-03T04:31:02.445Z,100
2023-04-03T04:41:02.388Z,100
2023-04-03T04:51:02.364Z,100
2023-04-03T05:01:02.340Z,100
2023-04-03T05:11:02.366Z,100
2023-04-03T05:21:02.356Z,100
2023-04-03T05:31:02.346Z,100
2023-04-03T05:41:02.443Z,100
2023-04-03T05:51:02.443Z,100
2023-04-03T06:01:02.643Z,100
2023-04-03T06:11:02.375Z,100
2023-04-03T06:21:02.377Z,98
2023-04-03T06:31:02.387Z,92
2023-04-03T06:41:02.380Z,80
2023-04-03T06:51:02.406Z,65
2023-04-03T07:01:02.369Z,59
2023-04-03T07:11:02.354Z,55
2023-04-03T07:21:02.322Z,53
2023-04-03T07:31:02.304Z,51
2023-04-03T07:41:02.407Z,51
2023-04-03T07:51:02.398Z,51
2023-04-03T08:01:02.313Z,52
2023-04-03T08:11:02.342Z,53
2023-04-03T08:21:02.428Z,51
2023-04-03T08:31:02.367Z,52
2023-04-03T08:41:02.361Z,52
2023-04-03T08:51:03.582Z,49
2023-04-03T09:01:02.290Z,48
2023-04-03T09:11:02.295Z,47
2023-04-03T09:21:02.350Z,45
2023-04-03T09:41:02.252Z,45
2023-04-03T09:51:02.346Z,42
2023-04-03T10:01:02.315Z,39
2023-04-03T10:11:02.404Z,40
2023-04-03T10:21:02.261Z,41
2023-04-03T10:31:02.307Z,37
2023-04-03T10:41:02.241Z,39
2023-04-03T10:51:02.305Z,38
2023-04-03T11:01:02.214Z,39
2023-04-03T11:11:02.340Z,40
2023-04-03T11:21:02.220Z,40
2023-04-03T11:31:02.204Z,41
2023-04-03T11:41:02.235Z,37
2023-04-03T11:51:02.292Z,40
2023-04-03T12:01:02.198Z,39
2023-04-03T12:11:02.151Z,37
2023-04-03T12:21:02.158Z,37
2023-04-03T12:31:02.205Z,38
2023-04-03T12:41:02.170Z,37
2023-04-03T12:51:02.126Z,36
2023-04-03T13:01:02.152Z,38
2023-04-03T13:11:02.158Z,37
2023-04-03T13:21:02.093Z,37
2023-04-03T13:31:02.093Z,38
2023-04-03T13:41:02.098Z,36
2023-04-03T13:51:02.138Z,37
2023-04-03T14:01:02.123Z,37
2023-04-03T14:11:02.122Z,36
2023-04-03T14:21:02.101Z,40
2023-04-03T14:31:02.121Z,37
2023-04-03T14:41:10.015Z,39
2023-04-03T14:51:05.502Z,39
2023-04-03T15:01:02.078Z,39
2023-04-03T15:11:02.056Z,39
2023-04-03T15:21:02.031Z,39
2023-04-03T15:31:02.072Z,41
2023-04-03T15:41:02.034Z,40
2023-04-03T15:51:02.067Z,41
2023-04-03T16:01:02.032Z,42
2023-04-03T16:11:02.054Z,38
2023-04-03T16:21:01.990Z,37
2023-04-03T16:31:02.039Z,35
2023-04-03T16:41:02.144Z,40
2023-04-03T16:51:02.002Z,41
2023-04-03T17:01:02.043Z,41
2023-04-03T17:11:01.964Z,44
2023-04-03T17:21:01.987Z,45
2023-04-03T17:31:01.984Z,46
2023-04-03T17:41:02.003Z,46
2023-04-03T18:01:01.989Z,47
2023-04-03T18:11:02.013Z,47
2023-04-03T18:21:01.997Z,50
2023-04-03T18:31:01.989Z,50
2023-04-03T18:41:02.001Z,50
2023-04-03T18:51:02.001Z,49
2023-04-03T19:01:02.065Z,48
2023-04-03T19:11:01.995Z,48
2023-04-03T19:21:02.036Z,49
2023-04-03T19:31:02.116Z,50
2023-04-03T19:41:02.015Z,51
2023-04-03T19:51:02.019Z,52
2023-04-03T20:01:01.997Z,52
2023-04-03T20:11:02.025Z,53
2023-04-03T20:21:02.048Z,54
2023-04-03T20:31:02.067Z,54
2023-04-03T20:41:02.027Z,54
2023-04-03T20:51:02.012Z,53
2023-04-03T21:01:02.120Z,53
2023-04-03T21:11:02.007Z,52
2023-04-03T21:21:02.018Z,52
2023-04-03T21:31:02.019Z,53
2023-04-03T21:41:02.028Z,53
2023-04-03T21:51:02.010Z,52
2023-04-03T22:01:02.045Z,52
2023-04-03T22:11:02.024Z,52
2023-04-03T22:21:02.043Z,53
2023-04-03T22:31:02.013Z,54
2023-04-03T22:41:02.048Z,55
2023-04-03T22:51:02.033Z,55
2023-04-03T23:01:02.057Z,55
2023-04-03T23:11:02.037Z,57
2023-04-03T23:21:02.028Z,56
2023-04-03T23:31:02.385Z,58
2023-04-03T23:41:02.069Z,61
2023-04-03T23:51:02.067Z,64
